Time;durP1;ratioP1;P1;durP2;ratioP2;P2;SDS_P1;SDS_P2;PMS_P1;PMS_P2;Temp;Humidity;BMP_temperature;BMP_pressure;BME280_temperature;BME280_humidity;BME280_pressure;Samples;Min_cycle;Max_cycle;Signal;HPM_P1;HPM_P2
2023/01/01 00:02:13;;;;;;;68.50;30.33;;;;;;;7.11;65.05;100522.78;6015526;23;20158;-84
2023/01/01 00:04:38;;;;;;;50.80;24.70;;;;;;;7.17;65.21;100517.47;6015781;23;20227;-83
2023/01/01 00:07:04;;;;;;;55.37;24.80;;;;;;;7.23;64.77;100514.78;6040333;23;20162;-83
2023/01/01 00:12:13;;;;;;;34.83;18.07;;;;;;;7.19;65.74;100515.69;6040721;23;20221;-84
2023/01/01 00:14:41;;;;;;;34.07;16.40;;;;;;;7.07;66.40;100526.34;6015662;23;20182;-83
2023/01/01 00:17:07;;;;;;;27.77;11.90;;;;;;;7.00;66.36;100527.31;6040389;23;20475;-84
2023/01/01 00:19:32;;;;;;;23.17;10.23;;;;;;;6.95;67.04;100518.69;6015636;23;20158;-84
2023/01/01 00:21:58;;;;;;;17.43;8.47;;;;;;;6.94;67.70;100528.28;6015358;23;20605;-83
2023/01/01 00:24:23;;;;;;;15.87;7.90;;;;;;;7.00;68.14;100524.69;6040880;23;20237;-84
2023/01/01 00:26:48;;;;;;;16.83;9.30;;;;;;;7.09;68.40;100533.25;6040195;23;20147;-84
2023/01/01 00:29:14;;;;;;;25.23;9.60;;;;;;;7.10;67.59;100526.28;6040372;23;20161;-83
2023/01/01 00:31:39;;;;;;;24.43;10.37;;;;;;;7.13;67.25;100534.03;6015217;23;20158;-84
2023/01/01 00:34:05;;;;;;;21.17;10.13;;;;;;;7.11;66.85;100533.22;6040766;23;20154;-84
2023/01/01 00:36:30;;;;;;;19.97;8.73;;;;;;;7.07;66.80;100541.97;6015305;23;20190;-83
2023/01/01 00:38:55;;;;;;;20.70;9.03;;;;;;;7.01;66.38;100535.13;6040697;23;20236;-83
2023/01/01 00:41:21;;;;;;;25.53;10.13;;;;;;;6.95;66.20;100536.94;6040351;23;20150;-83
2023/01/01 00:43:46;;;;;;;24.93;9.60;;;;;;;6.94;66.44;100537.84;6015437;23;20224;-83
2023/01/01 00:46:14;;;;;;;24.37;12.50;;;;;;;6.95;66.71;100536.94;6040608;23;20146;-83
2023/01/01 00:48:39;;;;;;;30.47;13.53;;;;;;;6.97;66.53;100543.03;6015106;23;20236;-83
2023/01/01 00:51:06;;;;;;;39.23;16.80;;;;;;;6.94;66.72;100538.72;6040037;23;20587;-83
2023/01/01 00:53:31;;;;;;;26.93;13.90;;;;;;;6.99;66.12;100541.25;6039892;23;20165;-83
2023/01/01 00:55:56;;;;;;;32.47;13.97;;;;;;;6.91;65.88;100545.72;6039369;23;20182;-83
2023/01/01 00:58:23;;;;;;;34.87;14.53;;;;;;;6.81;66.43;100545.84;6015433;23;20158;-83
2023/01/01 01:00:50;;;;;;;32.60;14.57;;;;;;;6.84;66.23;100554.50;6039963;23;20153;-84
2023/01/01 01:03:27;;;;;;;44.70;20.03;;;;;;;6.82;66.23;100546.69;6039212;23;20588;-83
2023/01/01 01:06:13;;;;;;;33.43;15.67;;;;;;;6.81;65.96;100543.22;6040095;23;20167;-83
2023/01/01 01:08:41;;;;;;;35.73;15.17;;;;;;;6.85;65.96;100545.78;6015004;23;20188;-83
2023/01/01 01:11:16;;;;;;;27.87;13.27;;;;;;;6.95;65.80;100542.16;6039727;23;20154;-84
2023/01/01 01:13:44;;;;;;;27.93;12.67;;;;;;;6.98;65.63;100536.91;6040187;23;20199;-84
2023/01/01 01:16:12;;;;;;;23.27;11.97;;;;;;;6.79;66.71;100531.97;6015093;23;20188;-84
2023/01/01 01:18:38;;;;;;;26.27;10.87;;;;;;;6.63;68.01;100533.06;6039717;23;20232;-84
2023/01/01 01:21:04;;;;;;;27.50;12.37;;;;;;;6.65;68.08;100528.72;6040357;23;20174;-84
2023/01/01 01:23:30;;;;;;;28.30;13.40;;;;;;;6.81;68.11;100529.38;6039730;23;20483;-84
2023/01/01 01:26:20;;;;;;;34.43;12.83;;;;;;;6.78;69.14;100530.28;6039974;23;20150;-84
2023/01/01 01:28:47;;;;;;;27.93;12.87;;;;;;;6.67;71.21;100521.75;6040036;23;20606;-83
2023/01/01 01:31:13;;;;;;;29.43;12.33;;;;;;;6.80;71.67;100514.59;6014968;23;20488;-83
2023/01/01 01:33:38;;;;;;;30.33;13.87;;;;;;;6.91;70.73;100517.03;6039413;23;20165;-83
2023/01/01 01:36:05;;;;;;;29.60;14.20;;;;;;;6.90;70.29;100510.97;6039555;23;20177;-83
2023/01/01 01:38:31;;;;;;;44.57;18.70;;;;;;;6.86;69.54;100511.91;6014565;23;20165;-83
2023/01/01 01:40:57;;;;;;;37.00;18.33;;;;;;;6.80;68.64;100515.47;6014589;23;20157;-83
2023/01/01 01:43:42;;;;;;;55.47;20.40;;;;;;;6.73;68.01;100511.22;6039317;23;20164;-83
2023/01/01 01:46:20;;;;;;;52.37;22.67;;;;;;;6.77;67.09;100518.13;6039452;23;20585;-83
2023/01/01 01:48:48;;;;;;;59.13;22.47;;;;;;;6.72;66.79;100514.72;6040077;23;20197;-88
2023/01/01 01:51:18;;;;;;;46.27;20.43;;;;;;;6.86;66.00;100511.91;6039971;23;20200;-88
2023/01/01 01:53:48;;;;;;;40.27;17.87;;;;;;;6.98;64.92;100510.84;6014581;23;20162;-87
2023/01/01 01:56:19;;;;;;;41.73;18.53;;;;;;;6.92;65.17;100503.13;6039274;23;20621;-88
2023/01/01 01:58:44;;;;;;;31.40;16.43;;;;;;;6.77;66.14;100497.28;6039540;23;20154;-87
2023/01/01 02:01:10;;;;;;;37.03;16.93;;;;;;;6.65;66.50;100499.19;6039449;23;20154;-88
2023/01/01 02:03:52;;;;;;;37.53;15.13;;;;;;;6.53;68.14;100501.97;6039344;23;20237;-88
2023/01/01 02:06:20;;;;;;;28.33;13.50;;;;;;;6.46;68.91;100506.41;6038221;23;20150;-88
2023/01/01 02:08:46;;;;;;;27.33;12.83;;;;;;;6.30;70.28;100519.66;6039346;23;20236;-88
2023/01/01 02:11:11;;;;;;;33.70;13.27;;;;;;;6.41;71.34;100520.38;6039795;23;20154;-88
2023/01/01 02:13:37;;;;;;;29.33;13.10;;;;;;;6.47;71.84;100518.53;6039162;23;20170;-88
2023/01/01 02:16:19;;;;;;;28.67;11.97;;;;;;;6.41;72.57;100513.44;6040102;23;20169;-88
2023/01/01 02:19:00;;;;;;;24.50;11.00;;;;;;;6.42;73.05;100529.94;6040007;23;20137;-88
2023/01/01 02:21:33;;;;;;;21.93;10.70;;;;;;;6.44;73.45;100518.63;6014661;23;20150;-88
2023/01/01 02:24:20;;;;;;;19.33;8.60;;;;;;;6.64;73.31;100519.19;6014413;23;20274;-87
2023/01/01 02:26:58;;;;;;;28.60;11.40;;;;;;;6.79;72.87;100520.69;6039673;23;20138;-88
2023/01/01 02:29:46;;;;;;;26.60;10.27;;;;;;;6.90;72.11;100528.34;6014430;23;20149;-88
2023/01/01 02:32:16;;;;;;;17.43;9.80;;;;;;;6.90;71.77;100531.81;6014236;23;20217;-88
2023/01/01 02:35:33;;;;;;;23.53;9.30;;;;;;;6.89;71.22;100526.63;6039648;23;20164;-88
2023/01/01 02:37:53;;;;;;;21.80;9.43;;;;;;;6.85;70.15;100524.94;6038880;23;20612;-88
2023/01/01 02:40:22;;;;;;;23.53;10.03;;;;;;;6.87;69.79;100528.38;6039549;23;20539;-88
2023/01/01 02:42:49;;;;;;;21.90;9.53;;;;;;;6.86;69.21;100524.94;6014410;23;20188;-88
2023/01/01 02:45:15;;;;;;;28.97;11.97;;;;;;;6.81;69.09;100524.97;6014173;23;20153;-88
2023/01/01 02:47:40;;;;;;;28.10;13.40;;;;;;;6.73;68.17;100526.84;6038969;23;20154;-88
2023/01/01 02:50:27;;;;;;;33.17;13.77;;;;;;;6.63;67.29;100529.63;6039438;23;20502;-88
2023/01/01 02:53:13;;;;;;;72.63;31.53;;;;;;;6.65;67.20;100533.94;6037979;23;20158;-87
2023/01/01 02:56:05;;;;;;;37.67;13.87;;;;;;;6.48;67.06;100535.91;6014372;23;20229;-88
2023/01/01 03:01:41;;;;;;;22.53;13.17;;;;;;;6.40;67.60;100536.88;6039148;23;20145;-89
2023/01/01 03:04:30;;;;;;;24.60;10.93;;;;;;;6.33;68.77;100530.91;6014609;23;20233;-88
2023/01/01 03:07:14;;;;;;;23.40;11.00;;;;;;;6.30;69.25;100530.06;6039378;23;20153;-88
2023/01/01 03:10:08;;;;;;;28.43;12.23;;;;;;;6.32;70.50;100523.97;6039401;23;20277;-88
2023/01/01 03:12:42;;;;;;;33.70;10.97;;;;;;;6.48;70.24;100524.63;6031059;23;20162;-88
2023/01/01 03:15:22;;;;;;;22.00;11.07;;;;;;;6.53;70.38;100523.69;6039081;23;20196;-88
2023/01/01 03:17:57;;;;;;;29.27;12.27;;;;;;;6.59;69.45;100527.94;6014181;23;20536;-88
2023/01/01 03:20:27;;;;;;;27.97;12.00;;;;;;;6.55;69.42;100531.50;6041011;23;20141;-88
2023/01/01 03:22:56;;;;;;;31.37;14.30;;;;;;;6.50;69.68;100528.09;6040908;23;20154;-88
2023/01/01 03:25:26;;;;;;;32.87;14.17;;;;;;;6.50;69.47;100528.09;6040784;23;20229;-88
2023/01/01 03:27:58;;;;;;;31.60;14.80;;;;;;;6.48;69.53;100528.09;6016005;23;20146;-88
2023/01/01 03:30:24;;;;;;;29.70;13.40;;;;;;;6.48;68.76;100530.69;6041111;23;20153;-88
2023/01/01 03:32:59;;;;;;;41.80;15.63;;;;;;;6.47;68.43;100528.97;6040664;23;20158;-88
2023/01/01 03:35:29;;;;;;;31.33;13.93;;;;;;;6.52;67.94;100524.56;6040788;23;20208;-88
2023/01/01 03:37:58;;;;;;;29.50;14.13;;;;;;;6.58;67.57;100536.63;6015795;23;20164;-88
2023/01/01 03:40:26;;;;;;;31.73;14.27;;;;;;;6.50;68.02;100530.69;6040455;23;20185;-88
2023/01/01 03:42:58;;;;;;;26.73;13.07;;;;;;;6.34;67.91;100536.97;6041260;23;20165;-88
2023/01/01 03:45:32;;;;;;;24.50;13.43;;;;;;;6.19;68.41;100532.81;6041156;23;20138;-88
2023/01/01 03:47:59;;;;;;;18.70;9.97;;;;;;;6.17;68.36;100534.59;6017323;23;20149;-88
2023/01/01 03:50:40;;;;;;;25.47;11.93;;;;;;;6.07;68.58;100538.19;6015543;23;20168;-88
2023/01/01 03:53:39;;;;;;;22.47;9.77;;;;;;;6.04;69.33;100538.22;6040446;23;20230;-88
2023/01/01 03:56:22;;;;;;;20.70;9.33;;;;;;;6.10;69.34;100543.38;6033416;23;20200;-88
2023/01/01 03:58:50;;;;;;;24.90;10.83;;;;;;;6.17;69.50;100537.19;6041129;23;20455;-88
2023/01/01 04:01:28;;;;;;;20.27;8.97;;;;;;;6.25;68.64;100550.09;6040425;23;20161;-88
2023/01/01 04:03:54;;;;;;;23.53;10.23;;;;;;;6.25;68.98;100537.09;6040392;23;20153;-89
2023/01/01 04:06:20;;;;;;;25.93;8.70;;;;;;;6.26;69.01;100544.91;6040441;23;20146;-88
2023/01/01 04:08:49;;;;;;;13.37;7.43;;;;;;;6.15;68.45;100542.44;6015440;23;20164;-88
2023/01/01 04:14:05;;;;;;;12.93;7.23;;;;;;;6.10;68.54;100548.56;6041162;23;20183;-89
2023/01/01 04:16:31;;;;;;;14.73;7.40;;;;;;;6.09;68.11;100545.09;6015373;23;20190;-88
2023/01/01 04:18:56;;;;;;;20.50;7.30;;;;;;;6.09;68.56;100552.03;6015620;23;20162;-89
2023/01/01 04:21:22;;;;;;;15.87;7.07;;;;;;;6.17;68.01;100545.88;6040295;23;20154;-88
2023/01/01 04:23:47;;;;;;;16.43;6.30;;;;;;;6.20;68.52;100544.97;6040970;23;20157;-89
2023/01/01 04:26:14;;;;;;;17.40;8.43;;;;;;;6.27;68.33;100545.72;6040224;23;20224;-88
2023/01/01 04:28:40;;;;;;;15.00;7.90;;;;;;;6.36;68.19;100546.50;6040720;23;20581;-89
2023/01/01 04:31:06;;;;;;;13.43;7.50;;;;;;;6.25;68.28;100537.97;6040077;23;20557;-89
2023/01/01 04:33:32;;;;;;;18.90;7.73;;;;;;;6.06;69.46;100541.66;6015588;23;20217;-88
2023/01/01 04:36:05;;;;;;;17.50;7.80;;;;;;;5.88;71.07;100542.75;6040304;23;20563;-88
2023/01/01 04:38:35;;;;;;;15.77;7.47;;;;;;;5.80;72.29;100551.47;6040232;23;20138;-88
2023/01/01 04:41:01;;;;;;;20.43;7.47;;;;;;;5.82;72.81;100557.50;6038703;23;20233;-88
2023/01/01 04:43:28;;;;;;;14.87;6.37;;;;;;;5.75;73.14;100555.84;6040621;23;20150;-88
2023/01/01 04:45:55;;;;;;;18.07;6.40;;;;;;;5.77;73.31;100561.91;6015066;23;20154;-88
2023/01/01 04:48:21;;;;;;;17.13;7.20;;;;;;;5.82;73.62;100542.75;6015236;23;20165;-88
2023/01/01 04:50:56;;;;;;;15.87;7.07;;;;;;;5.88;73.72;100547.06;6040341;23;20154;-88
2023/01/01 04:53:21;;;;;;;14.00;8.10;;;;;;;5.90;73.87;100545.31;6016141;23;20161;-89
2023/01/01 04:55:47;;;;;;;11.63;6.37;;;;;;;6.18;73.33;100550.16;6014981;23;20623;-89
2023/01/01 04:58:12;;;;;;;11.23;6.60;;;;;;;6.36;72.88;100558.66;6039800;23;20637;-88
2023/01/01 05:00:38;;;;;;;15.53;6.27;;;;;;;6.34;72.41;100560.44;6038935;23;20646;-88
2023/01/01 05:03:03;;;;;;;11.70;6.37;;;;;;;6.32;72.08;100555.22;6039696;23;20236;-89
2023/01/01 05:05:28;;;;;;;19.90;8.27;;;;;;;6.31;72.76;100563.94;6014923;23;20158;-89
2023/01/01 05:07:54;;;;;;;19.27;7.90;;;;;;;6.22;72.29;100573.56;6014963;23;20237;-88
2023/01/01 05:10:19;;;;;;;14.53;7.83;;;;;;;6.15;72.63;100572.81;6015277;23;20158;-88
2023/01/01 05:12:45;;;;;;;10.87;6.10;;;;;;;6.09;72.93;100575.47;6040187;23;20217;-89
2023/01/01 05:15:10;;;;;;;15.27;6.93;;;;;;;6.13;73.03;100571.97;6014948;23;20178;-89
2023/01/01 05:17:35;;;;;;;16.97;7.33;;;;;;;6.22;72.47;100576.19;6039611;23;20265;-88
2023/01/01 05:20:01;;;;;;;15.47;7.10;;;;;;;6.26;72.18;100583.09;6014894;23;20541;-89
2023/01/01 05:22:27;;;;;;;21.73;7.53;;;;;;;6.27;71.95;100584.78;6040018;23;20165;-88
2023/01/01 05:24:53;;;;;;;18.03;8.40;;;;;;;6.20;71.00;100584.03;6039665;23;20571;-89
2023/01/01 05:27:18;;;;;;;24.37;11.40;;;;;;;6.20;70.80;100586.63;6039818;23;20165;-89
2023/01/01 05:29:44;;;;;;;31.23;13.20;;;;;;;6.19;69.92;100584.88;6014735;23;20153;-89
2023/01/01 05:32:09;;;;;;;33.70;13.80;;;;;;;6.16;69.67;100584.91;6040090;23;20193;-89
2023/01/01 05:34:35;;;;;;;32.83;15.43;;;;;;;6.13;69.03;100580.59;6040295;23;20154;-89
2023/01/01 05:37:00;;;;;;;28.40;12.87;;;;;;;6.16;68.55;100579.72;6014569;23;20272;-89
2023/01/01 05:39:25;;;;;;;25.73;10.67;;;;;;;6.12;67.76;100583.25;6039564;23;20165;-89
2023/01/01 05:41:51;;;;;;;22.27;9.33;;;;;;;6.09;67.47;100572.88;6038718;23;20153;-89
2023/01/01 05:44:18;;;;;;;22.53;9.70;;;;;;;6.04;67.05;100585.94;6014734;23;20550;-89
2023/01/01 05:46:43;;;;;;;19.53;8.00;;;;;;;6.02;67.07;100592.03;6039880;23;20146;-89
2023/01/01 05:49:10;;;;;;;14.30;8.07;;;;;;;6.01;67.37;100590.31;6039827;23;20204;-89
2023/01/01 05:51:36;;;;;;;15.80;7.60;;;;;;;5.97;67.12;100583.44;6014507;23;20523;-89
2023/01/01 05:54:02;;;;;;;20.17;8.30;;;;;;;5.93;66.87;100598.19;6014744;23;20174;-89
2023/01/01 05:56:27;;;;;;;18.50;7.73;;;;;;;5.87;67.17;100603.47;6039699;23;20699;-88
2023/01/01 05:58:53;;;;;;;18.27;7.27;;;;;;;5.81;67.55;100602.63;6014518;23;20228;-88
2023/01/01 06:01:22;;;;;;;12.40;6.00;;;;;;;5.85;67.31;100602.63;6014495;23;20162;-89
2023/01/01 06:03:48;;;;;;;16.77;7.20;;;;;;;5.89;67.37;100603.47;6040048;23;20190;-89
2023/01/01 06:06:16;;;;;;;14.97;7.50;;;;;;;5.88;67.82;100601.72;6014370;23;20491;-89
2023/01/01 06:08:47;;;;;;;22.93;6.20;;;;;;;5.89;67.79;100604.31;6015083;23;20232;-88
2023/01/01 06:11:12;;;;;;;13.63;6.50;;;;;;;6.01;67.60;100600.72;6014547;23;20175;-89
2023/01/01 06:13:38;;;;;;;9.37;5.53;;;;;;;6.06;67.69;100601.53;6014557;23;20224;-88
2023/01/01 06:16:04;;;;;;;9.27;5.23;;;;;;;6.06;67.51;100611.94;6038355;23;20272;-88
2023/01/01 06:18:33;;;;;;;10.57;4.60;;;;;;;6.06;67.62;100604.13;6039265;23;20200;-88
2023/01/01 06:21:12;;;;;;;13.77;5.17;;;;;;;6.05;68.24;100605.03;6038085;23;20323;-88
2023/01/01 06:23:38;;;;;;;9.77;5.37;;;;;;;6.02;68.86;100602.44;6015605;23;20251;-88
2023/01/01 06:26:07;;;;;;;9.57;4.20;;;;;;;6.22;68.59;100602.22;6014768;23;20567;-89
2023/01/01 06:28:32;;;;;;;10.30;4.60;;;;;;;6.17;69.22;100605.75;6040063;23;20172;-89
2023/01/01 06:31:00;;;;;;;8.33;4.00;;;;;;;6.17;70.13;100605.75;6039773;23;20157;-89
2023/01/01 06:33:26;;;;;;;16.80;4.63;;;;;;;6.26;69.97;100607.38;6039678;23;20168;-89
2023/01/01 06:35:51;;;;;;;10.63;4.03;;;;;;;6.31;70.51;100605.59;6014286;23;20516;-89
2023/01/01 06:38:16;;;;;;;6.37;3.87;;;;;;;6.51;71.14;100601.00;6038005;23;20282;-89
2023/01/01 06:40:42;;;;;;;16.63;4.93;;;;;;;6.84;70.89;100606.63;6039538;23;20595;-89
2023/01/01 06:43:07;;;;;;;9.57;4.73;;;;;;;7.30;71.38;100603.31;6038628;23;20630;-89
2023/01/01 06:45:33;;;;;;;11.73;5.23;;;;;;;7.89;71.63;100607.50;6014231;23;20154;-89
2023/01/01 06:47:58;;;;;;;15.23;7.23;;;;;;;8.58;69.83;100599.19;6014358;23;20196;-89
2023/01/01 06:50:23;;;;;;;13.07;6.33;;;;;;;9.34;69.13;100600.94;6039642;23;20241;-88
2023/01/01 06:52:49;;;;;;;16.67;7.03;;;;;;;9.96;64.71;100590.63;6014385;23;20249;-89
2023/01/01 06:55:14;;;;;;;13.80;6.80;;;;;;;10.10;61.98;100594.59;6041768;23;20544;-88
2023/01/01 06:57:40;;;;;;;13.33;6.80;;;;;;;10.08;60.21;100601.63;6041389;23;20581;-89
2023/01/01 07:00:06;;;;;;;12.13;5.93;;;;;;;10.04;59.34;100599.97;6016957;23;20188;-89
2023/01/01 07:02:31;;;;;;;11.50;5.20;;;;;;;9.97;59.51;100598.44;6016527;23;20189;-89
2023/01/01 07:04:57;;;;;;;12.37;5.70;;;;;;;9.97;59.97;100598.44;6016245;23;20191;-89
2023/01/01 07:07:22;;;;;;;11.00;5.73;;;;;;;9.99;59.76;100591.41;6040973;23;20221;-89
2023/01/01 07:09:48;;;;;;;11.57;5.53;;;;;;;10.17;59.76;100595.28;6016601;23;20156;-89
2023/01/01 07:12:13;;;;;;;10.23;4.80;;;;;;;10.38;59.30;100589.44;6016143;23;20161;-89
2023/01/01 07:14:38;;;;;;;12.27;5.47;;;;;;;10.55;59.17;100596.84;6016298;23;20202;-89
2023/01/01 07:17:04;;;;;;;10.30;4.93;;;;;;;10.70;59.02;100586.75;6017006;23;20189;-89
2023/01/01 07:19:29;;;;;;;12.20;4.97;;;;;;;10.89;58.74;100592.31;6017356;23;20291;-89
2023/01/01 07:21:55;;;;;;;13.30;5.17;;;;;;;11.01;59.04;100597.16;6017072;23;20185;-90
2023/01/01 07:24:20;;;;;;;9.80;5.63;;;;;;;11.05;58.53;100590.94;6016308;23;20157;-89
2023/01/01 07:26:47;;;;;;;10.13;4.63;;;;;;;11.00;58.26;100605.97;6016339;23;20168;-89
2023/01/01 07:29:13;;;;;;;9.97;4.50;;;;;;;10.87;58.14;100599.38;6041140;23;20160;-89
2023/01/01 07:31:41;;;;;;;10.27;5.37;;;;;;;10.68;59.15;100592.94;6016363;23;20162;-89
2023/01/01 07:34:11;;;;;;;11.27;5.00;;;;;;;10.61;60.08;100596.66;6039741;23;20171;-90
2023/01/01 07:36:37;;;;;;;10.33;4.77;;;;;;;10.58;60.46;100587.13;6016721;23;20581;-89
2023/01/01 07:39:02;;;;;;;10.10;5.17;;;;;;;10.54;60.56;100585.50;6016326;23;20576;-89
2023/01/01 07:41:28;;;;;;;11.03;5.77;;;;;;;10.47;61.22;100587.44;6040901;23;20150;-89
2023/01/01 07:43:53;;;;;;;16.80;8.00;;;;;;;10.44;62.17;100590.16;6015773;23;20312;-89
2023/01/01 07:46:19;;;;;;;16.57;6.60;;;;;;;10.45;62.85;100597.09;6016790;23;20241;-89
2023/01/01 07:48:44;;;;;;;18.50;9.07;;;;;;;10.47;62.93;100584.81;6015766;23;20575;-89
2023/01/01 07:51:10;;;;;;;25.47;10.03;;;;;;;10.57;63.54;100584.53;6040972;23;20157;-89
2023/01/01 07:53:35;;;;;;;19.90;8.63;;;;;;;10.67;63.61;100586.84;6039460;23;20197;-89
2023/01/01 07:56:01;;;;;;;16.60;8.27;;;;;;;10.78;63.26;100591.78;6016782;23;20193;-89
2023/01/01 07:58:26;;;;;;;16.77;7.33;;;;;;;10.88;62.61;100587.97;6040568;23;20154;-89
2023/01/01 08:00:52;;;;;;;14.33;6.20;;;;;;;10.87;63.28;100599.38;6040659;23;20574;-90
2023/01/01 08:03:18;;;;;;;17.47;7.23;;;;;;;10.99;63.84;100597.22;6015576;23;20158;-89
2023/01/01 08:05:43;;;;;;;16.23;7.93;;;;;;;11.12;63.22;100597.69;6040205;23;20149;-89
2023/01/01 08:08:10;;;;;;;17.07;7.90;;;;;;;11.20;62.51;100603.56;6016048;23;20189;-89
2023/01/01 08:10:36;;;;;;;16.33;7.90;;;;;;;11.32;63.12;100597.91;6040646;23;20150;-89
2023/01/01 08:13:04;;;;;;;18.43;7.53;;;;;;;11.48;63.05;100601.75;6015415;23;20201;-89
2023/01/01 08:15:30;;;;;;;16.10;7.77;;;;;;;11.58;62.32;100603.16;6015224;23;20181;-89
2023/01/01 08:17:57;;;;;;;25.10;8.03;;;;;;;11.70;62.69;100607.19;6040697;23;20161;-89
2023/01/01 08:20:23;;;;;;;40.17;16.93;;;;;;;11.85;63.89;100604.03;6040651;23;20591;-90
2023/01/01 08:22:48;;;;;;;22.57;10.43;;;;;;;11.93;62.93;100607.25;6040762;23;20177;-90
2023/01/01 08:25:14;;;;;;;17.03;7.03;;;;;;;12.03;61.81;100607.78;6015798;23;20158;-90
2023/01/01 08:27:39;;;;;;;14.97;6.63;;;;;;;12.12;60.64;100592.56;6040376;23;20181;-89
2023/01/01 08:30:05;;;;;;;14.80;7.57;;;;;;;12.22;61.22;100608.88;6015439;23;20158;-90
2023/01/01 08:32:31;;;;;;;16.33;6.70;;;;;;;12.37;61.41;100613.56;6040283;23;20162;-90
2023/01/01 08:34:56;;;;;;;20.33;8.67;;;;;;;12.57;61.54;100610.22;6015525;23;20163;-89
2023/01/01 08:37:22;;;;;;;28.50;12.80;;;;;;;12.71;61.41;100614.03;6015327;23;20319;-89
2023/01/01 08:39:49;;;;;;;24.33;11.57;;;;;;;12.85;60.04;100611.75;6015471;23;20160;-89
2023/01/01 08:42:15;;;;;;;17.60;10.10;;;;;;;13.14;60.38;100612.41;6015021;23;20171;-89
2023/01/01 08:44:40;;;;;;;19.93;9.37;;;;;;;13.31;60.15;100610.81;6015519;23;20160;-89
2023/01/01 08:47:05;;;;;;;18.90;10.03;;;;;;;13.44;59.00;100611.19;6015399;23;20156;-89
2023/01/01 08:49:31;;;;;;;25.53;13.83;;;;;;;13.51;57.46;100602.97;6040561;23;20157;-90
2023/01/01 08:51:57;;;;;;;25.47;14.30;;;;;;;13.62;57.27;100606.94;6040039;23;20240;-90
2023/01/01 08:54:22;;;;;;;29.63;16.27;;;;;;;13.79;56.38;100610.56;6015567;23;20153;-89
2023/01/01 08:56:47;;;;;;;31.53;16.63;;;;;;;13.93;55.64;100595.03;6015620;23;20189;-90
2023/01/01 08:59:13;;;;;;;34.23;17.60;;;;;;;14.02;54.34;100597.25;6015942;23;20153;-90
2023/01/01 09:01:38;;;;;;;42.73;20.00;;;;;;;14.07;54.33;100592.66;6040400;23;20158;-89
2023/01/01 09:04:06;;;;;;;48.20;22.70;;;;;;;14.26;53.09;100592.69;6015220;23;20233;-89
2023/01/01 09:06:32;;;;;;;52.73;24.53;;;;;;;14.45;52.82;100583.06;6016557;23;20217;-90
2023/01/01 09:08:57;;;;;;;50.43;24.27;;;;;;;14.64;52.09;100588.38;6015110;23;20158;-90
2023/01/01 09:11:26;;;;;;;55.17;24.20;;;;;;;14.81;51.41;100595.47;6039824;23;20213;-89
2023/01/01 09:13:52;;;;;;;44.33;21.03;;;;;;;14.97;50.73;100596.47;6015013;23;20211;-89
2023/01/01 09:16:17;;;;;;;35.73;17.97;;;;;;;15.10;50.11;100587.91;6038435;23;20179;-90
2023/01/01 09:18:43;;;;;;;26.80;12.90;;;;;;;15.35;49.24;100593.72;6040011;23;20154;-90
2023/01/01 09:21:09;;;;;;;21.07;10.20;;;;;;;15.38;48.11;100588.28;6015207;23;20559;-90
2023/01/01 09:23:34;;;;;;;35.40;15.10;;;;;;;15.48;48.77;100587.88;6039912;23;20185;-89
2023/01/01 09:26:08;;;;;;;21.07;10.43;;;;;;;15.65;49.17;100588.72;6040522;23;20158;-89
2023/01/01 09:28:34;;;;;;;19.57;7.60;;;;;;;15.57;50.41;100582.09;6040097;23;20168;-89
2023/01/01 09:31:00;;;;;;;15.03;6.50;;;;;;;15.53;50.74;100575.28;6039639;23;20165;-89
2023/01/01 09:33:26;;;;;;;13.70;6.53;;;;;;;15.63;50.26;100587.97;6015033;23;20163;-89
2023/01/01 09:35:51;;;;;;;13.67;6.47;;;;;;;15.52;49.81;100578.84;6040046;23;20247;-90
2023/01/01 09:38:17;;;;;;;11.33;5.53;;;;;;;15.46;49.35;100580.00;6040127;23;20535;-88
2023/01/01 09:40:51;;;;;;;12.53;5.87;;;;;;;15.60;49.52;100566.09;6039796;23;20154;-90
2023/01/01 09:43:48;;;;;;;13.90;6.90;;;;;;;15.80;48.90;100568.59;6039796;23;20211;-89
2023/01/01 09:46:14;;;;;;;16.67;7.20;;;;;;;15.98;48.62;100567.66;6039968;23;20137;-88
2023/01/01 09:48:51;;;;;;;12.00;4.93;;;;;;;16.19;47.35;100555.09;6039662;23;20199;-89
2023/01/01 09:51:19;;;;;;;12.77;6.13;;;;;;;16.21;46.54;100559.38;6038360;23;20228;-89
2023/01/01 09:54:08;;;;;;;13.33;6.27;;;;;;;16.34;46.82;100549.84;6038248;23;20236;-89
2023/01/01 09:56:35;;;;;;;14.13;6.40;;;;;;;16.47;46.69;100557.97;6039295;23;20596;-89
2023/01/01 09:59:01;;;;;;;10.27;6.00;;;;;;;16.57;46.62;100560.06;6039042;23;20154;-89
2023/01/01 10:01:38;;;;;;;10.80;6.00;;;;;;;16.66;45.63;100556.06;6039190;23;20236;-89
2023/01/01 10:04:41;;;;;;;12.23;5.77;;;;;;;16.65;44.88;100542.88;6039322;23;20157;-89
2023/01/01 10:07:48;;;;;;;12.97;6.63;;;;;;;16.87;45.40;100540.78;6039476;23;20150;-89
2023/01/01 10:10:35;;;;;;;17.37;6.80;;;;;;;16.87;45.32;100538.13;6021720;23;20172;-89
2023/01/01 10:13:25;;;;;;;14.80;7.43;;;;;;;17.04;44.96;100538.03;6039509;23;20164;-89
2023/01/01 10:16:09;;;;;;;17.10;6.80;;;;;;;17.07;45.07;100541.34;6039705;23;20170;-90
2023/01/01 10:18:37;;;;;;;20.40;7.57;;;;;;;17.24;44.52;100531.59;6039790;23;20231;-89
2023/01/01 10:21:15;;;;;;;13.77;7.23;;;;;;;17.35;45.17;100535.31;6039635;23;20149;-89
2023/01/01 10:24:02;;;;;;;12.83;6.33;;;;;;;17.47;45.39;100515.19;6040110;23;20201;-89
2023/01/01 10:26:30;;;;;;;13.23;6.97;;;;;;;17.35;45.04;100513.28;6014433;23;20162;-89
2023/01/01 10:29:04;;;;;;;14.30;6.60;;;;;;;17.44;44.12;100512.72;6014460;23;20161;-89
2023/01/01 10:31:39;;;;;;;17.83;7.93;;;;;;;17.59;45.12;100502.09;6039452;23;20141;-89
2023/01/01 10:34:27;;;;;;;11.77;6.67;;;;;;;17.73;44.44;100501.28;6014594;23;20157;-90
2023/01/01 10:36:58;;;;;;;19.70;9.97;;;;;;;17.91;44.69;100504.59;6039617;23;20170;-89
2023/01/01 10:39:24;;;;;;;16.67;8.80;;;;;;;18.00;43.51;100501.41;6040463;23;20149;-89
2023/01/01 10:41:50;;;;;;;17.63;8.13;;;;;;;18.14;43.11;100494.28;6039381;23;20229;-89
2023/01/01 10:44:25;;;;;;;17.83;8.43;;;;;;;18.28;42.91;100490.78;6039313;23;20532;-89
2023/01/01 10:46:57;;;;;;;21.63;10.60;;;;;;;18.40;41.75;100497.94;6039246;23;20289;-88
2023/01/01 10:49:23;;;;;;;20.93;9.80;;;;;;;18.46;41.21;100489.63;6039663;23;20297;-88
2023/01/01 10:51:51;;;;;;;20.53;10.10;;;;;;;18.53;41.81;100495.41;6039224;23;20588;-89
2023/01/01 10:54:39;;;;;;;21.03;10.67;;;;;;;18.66;41.56;100491.88;6014561;23;20156;-89
2023/01/01 10:57:27;;;;;;;23.80;11.97;;;;;;;18.77;40.99;100489.38;6039961;23;20189;-89
2023/01/01 10:59:53;;;;;;;24.17;11.40;;;;;;;18.99;41.20;100488.84;6005966;23;20477;-90
2023/01/01 11:02:27;;;;;;;37.37;16.97;;;;;;;19.18;40.74;100485.81;6039738;23;20233;-89
2023/01/01 11:05:20;;;;;;;25.67;12.37;;;;;;;19.40;40.96;100478.13;6039668;23;20527;-89
2023/01/01 11:07:46;;;;;;;31.17;13.23;;;;;;;19.58;40.50;100483.06;6039598;23;20557;-89
2023/01/01 11:10:21;;;;;;;24.73;12.97;;;;;;;19.63;39.59;100475.59;6039536;23;20154;-90
2023/01/01 11:12:47;;;;;;;24.80;12.63;;;;;;;19.61;39.25;100477.53;6040027;23;20153;-90
2023/01/01 11:15:34;;;;;;;22.30;12.50;;;;;;;19.57;39.89;100477.84;6014573;23;20551;-89
2023/01/01 11:18:12;;;;;;;23.53;12.07;;;;;;;19.76;39.07;100469.47;6039620;23;20150;-90
2023/01/01 11:20:37;;;;;;;28.53;12.93;;;;;;;19.68;39.73;100461.16;6039446;23;20138;-90
2023/01/01 11:23:30;;;;;;;27.60;13.23;;;;;;;19.82;39.18;100464.56;6014551;23;20161;-89
2023/01/01 11:26:18;;;;;;;26.00;12.27;;;;;;;20.00;39.37;100463.25;6014610;23;20148;-89
2023/01/01 11:29:16;;;;;;;21.43;11.33;;;;;;;19.89;39.11;100457.84;6039420;23;20636;-90
2023/01/01 11:31:44;;;;;;;27.50;12.43;;;;;;;19.93;39.13;100453.16;6039629;23;20547;-90
2023/01/01 11:34:25;;;;;;;24.63;13.33;;;;;;;20.00;39.21;100451.75;6039288;23;20613;-89
2023/01/01 11:36:50;;;;;;;23.83;12.30;;;;;;;19.99;38.18;100453.59;6039815;23;20184;-89
2023/01/01 11:39:25;;;;;;;26.47;14.37;;;;;;;20.03;38.95;100447.09;6039866;23;20173;-89
2023/01/01 11:41:56;;;;;;;27.87;13.13;;;;;;;20.21;38.78;100450.25;6041094;23;20137;-90